Time;durP1;ratioP1;P1;durP2;ratioP2;P2;SDS_P1;SDS_P2;PMS_P1;PMS_P2;Temp;Humidity;BMP_temperature;BMP_pressure;BME280_temperature;BME280_humidity;BME280_pressure;Samples;Min_cycle;Max_cycle;Signal;HPM_P1;HPM_P2
2022/01/16 00:00:45;;;;;;;19.73;13.53;;;3.60;99.90;;;;;;10362011;28;20253;-76
2022/01/16 00:05:46;;;;;;;18.83;13.57;;;3.60;99.90;;;;;;10376384;28;20312;-76
2022/01/16 00:10:47;;;;;;;20.30;14.67;;;3.50;99.90;;;;;;10359626;28;20292;-76
2022/01/16 00:15:48;;;;;;;21.87;15.37;;;3.50;99.90;;;;;;10357041;28;20573;-76
2022/01/16 00:20:52;;;;;;;21.27;14.83;;;3.60;99.90;;;;;;10366373;28;20232;-77
2022/01/16 00:25:56;;;;;;;19.90;14.50;;;3.60;99.90;;;;;;10331646;28;20222;-77
2022/01/16 00:30:57;;;;;;;19.70;15.27;;;3.60;99.90;;;;;;10349250;28;20281;-76
2022/01/16 00:35:58;;;;;;;19.77;14.93;;;3.50;99.90;;;;;;10348016;28;20233;-76
2022/01/16 00:40:58;;;;;;;22.50;16.77;;;3.50;99.90;;;;;;10339846;28;20248;-75
2022/01/16 00:45:59;;;;;;;20.93;15.13;;;3.60;99.90;;;;;;10339372;28;20234;-75
2022/01/16 00:51:00;;;;;;;21.23;16.53;;;3.60;99.90;;;;;;10344190;28;20279;-75
2022/01/16 00:56:01;;;;;;;20.27;16.00;;;3.60;99.90;;;;;;10344599;28;20257;-76
2022/01/16 01:01:02;;;;;;;21.20;16.27;;;3.60;99.90;;;;;;10391685;28;20224;-77
2022/01/16 01:06:03;;;;;;;26.33;17.70;;;3.60;99.90;;;;;;10370898;28;20225;-75
2022/01/16 01:11:09;;;;;;;29.00;17.50;;;3.60;99.90;;;;;;10336479;28;20640;-75
2022/01/16 01:16:14;;;;;;;28.93;18.53;;;3.60;99.90;;;;;;10346865;28;20782;-74
2022/01/16 01:21:28;;;;;;;31.13;19.93;;;3.60;99.90;;;;;;10354013;28;20636;-74
2022/01/16 01:26:36;;;;;;;31.03;19.97;;;3.60;99.90;;;;;;10354327;28;20525;-74
2022/01/16 01:31:36;;;;;;;36.53;20.90;;;3.60;99.90;;;;;;10331002;28;20226;-74
2022/01/16 01:36:37;;;;;;;37.03;20.50;;;3.70;99.90;;;;;;10323827;28;20739;-75
2022/01/16 01:41:37;;;;;;;35.73;21.23;;;3.60;99.90;;;;;;10340989;28;20723;-75
2022/01/16 01:51:57;;;;;;;37.00;21.40;;;3.60;99.90;;;;;;10348317;28;20222;-74
2022/01/16 01:57:02;;;;;;;38.47;21.30;;;3.60;99.90;;;;;;10335384;28;20689;-74
2022/01/16 02:02:03;;;;;;;37.80;20.80;;;3.60;99.90;;;;;;10329580;28;20749;-75
2022/01/16 02:07:04;;;;;;;39.70;22.07;;;3.60;99.90;;;;;;10337876;28;20701;-75
2022/01/16 02:12:06;;;;;;;39.10;20.20;;;3.60;99.90;;;;;;10345490;28;20703;-74
2022/01/16 02:28:11;;;;;;;36.30;19.13;;;3.60;99.90;;;;;;10345489;28;20977;-75
2022/01/16 02:38:13;;;;;;;36.50;21.57;;;3.60;99.90;;;;;;10344132;28;20240;-74
2022/01/16 02:43:16;;;;;;;46.13;22.00;;;3.60;99.90;;;;;;10351022;28;20229;-73
2022/01/16 02:48:16;;;;;;;47.53;23.77;;;3.60;99.90;;;;;;10387991;28;20240;-74
2022/01/16 02:53:17;;;;;;;47.97;23.50;;;3.60;99.90;;;;;;10358489;28;20264;-75
2022/01/16 02:58:21;;;;;;;54.97;27.13;;;3.50;99.90;;;;;;10359166;28;20252;-76
2022/01/16 03:03:25;;;;;;;57.87;29.97;;;3.50;99.90;;;;;;10361181;28;20678;-75
2022/01/16 03:08:26;;;;;;;51.03;27.87;;;3.50;99.90;;;;;;10357715;28;20250;-75
2022/01/16 03:13:31;;;;;;;50.40;27.43;;;3.40;99.90;;;;;;10362205;28;20240;-74
2022/01/16 03:23:33;;;;;;;51.23;28.87;;;3.40;99.90;;;;;;10369144;28;20680;-74
2022/01/16 03:28:34;;;;;;;52.27;28.00;;;3.30;99.90;;;;;;10364532;28;20239;-75
2022/01/16 03:33:35;;;;;;;51.47;29.77;;;3.30;99.90;;;;;;10357219;28;20594;-74
2022/01/16 03:38:37;;;;;;;53.87;29.47;;;3.30;99.90;;;;;;10354060;28;20222;-76
2022/01/16 03:43:38;;;;;;;53.43;30.40;;;3.30;99.90;;;;;;10350371;28;20248;-76
2022/01/16 03:48:38;;;;;;;58.13;31.73;;;3.40;99.90;;;;;;10353562;28;20697;-76
2022/01/16 03:53:39;;;;;;;55.93;30.93;;;3.40;99.90;;;;;;10356359;28;20782;-75
2022/01/16 03:58:40;;;;;;;51.43;29.33;;;3.40;99.90;;;;;;10361089;28;20228;-74
2022/01/16 04:03:40;;;;;;;44.90;26.37;;;3.40;99.90;;;;;;10359312;28;20288;-75
2022/01/16 04:08:41;;;;;;;43.57;25.47;;;3.40;99.90;;;;;;10349521;28;20688;-72
2022/01/16 04:13:50;;;;;;;46.97;26.70;;;3.40;99.90;;;;;;10351526;28;20230;-74
2022/01/16 04:18:51;;;;;;;46.63;26.73;;;3.30;99.90;;;;;;10360718;28;20224;-74
2022/01/16 04:23:53;;;;;;;45.37;26.53;;;3.30;99.90;;;;;;10355341;28;20687;-75
2022/01/16 04:28:54;;;;;;;40.13;24.53;;;3.30;99.90;;;;;;10373086;28;20315;-75
2022/01/16 04:33:54;;;;;;;43.00;25.20;;;3.30;99.90;;;;;;10366994;28;20221;-74
2022/01/16 04:38:55;;;;;;;36.17;21.00;;;3.30;99.90;;;;;;10339029;28;20226;-74
2022/01/16 04:43:56;;;;;;;39.60;21.00;;;3.30;99.90;;;;;;10356466;28;20222;-74
2022/01/16 04:48:59;;;;;;;36.57;21.60;;;3.40;99.90;;;;;;10365126;28;20257;-74
2022/01/16 04:53:59;;;;;;;35.37;21.70;;;3.40;99.90;;;;;;10365747;28;20315;-74
2022/01/16 04:59:00;;;;;;;32.70;19.83;;;3.40;99.90;;;;;;10347781;28;20349;-73
2022/01/16 05:04:01;;;;;;;35.93;20.83;;;3.40;99.90;;;;;;10353531;28;20627;-72
2022/01/16 05:09:06;;;;;;;36.47;20.43;;;3.40;99.90;;;;;;10345171;28;20237;-73
2022/01/16 05:19:27;;;;;;;35.93;21.37;;;3.40;99.90;;;;;;10318439;28;20244;-76
2022/01/16 05:24:32;;;;;;;34.47;21.40;;;3.40;99.90;;;;;;10344661;28;20264;-74
2022/01/16 05:29:33;;;;;;;36.97;20.70;;;3.40;99.90;;;;;;10351811;28;20308;-74
2022/01/16 05:34:33;;;;;;;36.10;20.97;;;3.50;99.90;;;;;;10362289;28;20309;-75
2022/01/16 05:39:34;;;;;;;33.57;21.13;;;3.40;99.90;;;;;;10353552;28;20625;-73
2022/01/16 05:44:35;;;;;;;28.77;17.97;;;3.40;99.90;;;;;;10345238;28;20241;-75
2022/01/16 05:49:35;;;;;;;28.30;17.50;;;3.30;99.90;;;;;;10356873;28;20229;-74
2022/01/16 05:54:39;;;;;;;26.77;17.07;;;3.30;99.90;;;;;;10345616;28;20713;-74
2022/01/16 05:59:40;;;;;;;28.00;17.53;;;3.30;99.90;;;;;;10338411;28;20221;-74
2022/01/16 06:04:40;;;;;;;27.83;16.57;;;3.20;99.90;;;;;;10344127;28;20233;-74
2022/01/16 06:09:41;;;;;;;28.17;17.27;;;3.20;99.90;;;;;;10340008;28;20232;-75
2022/01/16 06:14:41;;;;;;;29.30;18.13;;;3.20;99.90;;;;;;10345766;28;20230;-75
2022/01/16 06:19:42;;;;;;;26.77;17.13;;;3.20;99.90;;;;;;10349099;28;20706;-73
2022/01/16 06:24:44;;;;;;;27.07;17.83;;;3.20;99.90;;;;;;10355282;28;20228;-74
2022/01/16 06:29:44;;;;;;;28.10;17.97;;;3.20;99.90;;;;;;10358994;28;20241;-74
2022/01/16 06:34:45;;;;;;;31.17;19.27;;;3.10;99.90;;;;;;10375645;28;20678;-72
2022/01/16 06:39:45;;;;;;;33.63;19.77;;;3.10;99.90;;;;;;10370055;28;20249;-73
2022/01/16 06:44:46;;;;;;;32.73;19.00;;;3.10;99.90;;;;;;10367909;28;20229;-74
2022/01/16 06:49:47;;;;;;;33.37;18.97;;;3.10;99.90;;;;;;10369240;28;20229;-73
2022/01/16 06:54:47;;;;;;;29.67;17.67;;;3.10;99.90;;;;;;10357014;28;20244;-75
2022/01/16 06:59:48;;;;;;;31.30;17.83;;;3.00;99.90;;;;;;10362597;28;20378;-74
2022/01/16 07:04:48;;;;;;;32.07;17.90;;;3.10;99.90;;;;;;10368566;28;20793;-73
2022/01/16 07:09:49;;;;;;;29.90;18.97;;;3.00;99.90;;;;;;10364014;28;20217;-74
2022/01/16 07:14:50;;;;;;;29.80;18.10;;;3.10;99.90;;;;;;10357148;28;20264;-75
2022/01/16 07:19:51;;;;;;;28.23;17.53;;;3.10;99.90;;;;;;10357670;28;20856;-73
2022/01/16 07:24:53;;;;;;;24.80;16.27;;;3.10;99.90;;;;;;10364282;28;20217;-73
2022/01/16 07:29:54;;;;;;;28.20;16.67;;;3.00;99.90;;;;;;10356182;28;20279;-74
2022/01/16 07:34:54;;;;;;;30.17;18.07;;;3.00;99.90;;;;;;10348278;28;20649;-73
2022/01/16 07:39:55;;;;;;;30.27;18.37;;;3.00;99.90;;;;;;10355712;28;20803;-74
2022/01/16 07:44:55;;;;;;;28.53;17.53;;;3.00;99.90;;;;;;10348329;28;20257;-75
2022/01/16 07:49:56;;;;;;;30.50;17.50;;;3.00;99.90;;;;;;10356145;28;20723;-75
2022/01/16 07:54:57;;;;;;;28.23;16.97;;;3.10;99.90;;;;;;10356195;28;20233;-74
2022/01/16 07:59:57;;;;;;;30.30;17.43;;;3.00;99.90;;;;;;10355928;28;20259;-74
2022/01/16 08:04:58;;;;;;;31.00;18.63;;;3.00;99.90;;;;;;10355789;28;20291;-73
2022/01/16 08:09:58;;;;;;;27.00;17.47;;;3.00;99.90;;;;;;10375844;28;20233;-74
2022/01/16 08:14:59;;;;;;;29.57;17.40;;;3.10;99.90;;;;;;10367380;28;20229;-73
2022/01/16 08:20:00;;;;;;;27.83;17.50;;;3.10;99.90;;;;;;10368869;28;20344;-74
2022/01/16 08:25:01;;;;;;;28.00;17.37;;;3.20;99.90;;;;;;10358295;28;20312;-73
2022/01/16 08:30:03;;;;;;;24.63;15.90;;;3.20;99.90;;;;;;10354602;28;20238;-74
2022/01/16 08:35:05;;;;;;;29.97;17.83;;;3.20;99.90;;;;;;10351113;28;20743;-72
2022/01/16 08:40:07;;;;;;;35.77;18.87;;;3.20;99.90;;;;;;10349589;28;20249;-73
2022/01/16 08:45:09;;;;;;;35.23;21.03;;;3.30;99.90;;;;;;10335789;28;20252;-74
2022/01/16 08:50:11;;;;;;;36.20;21.27;;;3.30;99.90;;;;;;10351971;28;20186;-74
2022/01/16 08:55:12;;;;;;;39.57;23.47;;;3.30;99.90;;;;;;10347484;28;20217;-73
2022/01/16 09:00:13;;;;;;;40.87;22.77;;;3.30;99.90;;;;;;10359955;28;20186;-75
2022/01/16 09:05:15;;;;;;;35.97;20.73;;;3.30;99.90;;;;;;10348129;28;20228;-74
2022/01/16 09:10:15;;;;;;;35.97;20.83;;;3.20;99.90;;;;;;10359066;28;20330;-73
2022/01/16 09:15:16;;;;;;;32.50;18.47;;;3.20;99.90;;;;;;10362032;28;20217;-74
2022/01/16 09:20:16;;;;;;;32.70;19.53;;;3.20;99.90;;;;;;10351585;28;20215;-73
2022/01/16 09:25:19;;;;;;;44.85;30.85;;;3.30;99.90;;;;;;10378783;28;20418;-75
2022/01/16 09:30:21;;;;;;;42.40;24.77;;;3.20;99.90;;;;;;10368197;28;20281;-74
2022/01/16 09:35:25;;;;;;;46.80;24.67;;;3.20;99.90;;;;;;10336100;28;20819;-74
2022/01/16 09:40:26;;;;;;;47.57;23.43;;;3.20;99.90;;;;;;10346771;28;20225;-74
2022/01/16 09:45:27;;;;;;;46.27;23.80;;;3.20;99.90;;;;;;10355778;28;20237;-75
2022/01/16 09:50:27;;;;;;;42.47;22.90;;;3.20;99.90;;;;;;10344774;28;20705;-73
2022/01/16 09:55:28;;;;;;;39.73;21.27;;;3.20;99.90;;;;;;10348475;28;20229;-75
2022/01/16 10:00:29;;;;;;;41.47;22.73;;;3.20;99.90;;;;;;10366141;28;20446;-76
2022/01/16 10:05:35;;;;;;;37.20;22.03;;;3.20;99.90;;;;;;10352634;28;20214;-77
2022/01/16 10:10:40;;;;;;;39.30;23.53;;;3.40;99.90;;;;;;10363501;28;20227;-75
2022/01/16 10:15:50;;;;;;;43.60;23.23;;;3.60;99.90;;;;;;10353427;28;20257;-74
2022/01/16 10:20:50;;;;;;;40.50;23.50;;;3.70;99.90;;;;;;10377896;28;20230;-75
2022/01/16 10:25:51;;;;;;;38.93;21.67;;;3.80;99.90;;;;;;10378412;28;20306;-75
2022/01/16 10:30:54;;;;;;;38.37;22.57;;;4.00;99.90;;;;;;10405276;28;20724;-74
2022/01/16 10:35:56;;;;;;;40.67;21.97;;;4.10;99.90;;;;;;10388968;28;20324;-75
2022/01/16 10:40:59;;;;;;;36.93;21.17;;;4.00;99.90;;;;;;10378677;28;20220;-77
2022/01/16 10:46:00;;;;;;;32.67;20.20;;;4.00;99.90;;;;;;10373156;28;20670;-76
2022/01/16 10:51:01;;;;;;;33.83;19.67;;;3.80;99.90;;;;;;10363252;28;20320;-76
2022/01/16 10:56:05;;;;;;;34.20;20.27;;;3.70;99.90;;;;;;10365664;28;20229;-77
2022/01/16 11:01:23;;;;;;;29.70;18.03;;;3.70;99.90;;;;;;10363254;28;20232;-77
2022/01/16 11:06:27;;;;;;;29.87;17.70;;;3.60;99.90;;;;;;10370829;28;20217;-76
2022/01/16 11:11:28;;;;;;;26.60;16.07;;;3.60;99.90;;;;;;10354297;28;20225;-76
2022/01/16 11:16:29;;;;;;;28.23;17.20;;;3.60;99.90;;;;;;10364960;28;20371;-76
2022/01/16 11:21:33;;;;;;;27.47;17.93;;;3.50;99.90;;;;;;10363160;28;20233;-77
2022/01/16 11:26:33;;;;;;;32.47;19.23;;;3.60;99.90;;;;;;10367605;28;20309;-77
2022/01/16 11:31:34;;;;;;;31.30;18.67;;;3.60;99.90;;;;;;10348648;28;20300;-77
2022/01/16 11:36:35;;;;;;;34.67;18.67;;;3.70;99.90;;;;;;10370441;28;20225;-75
2022/01/16 11:41:58;;;;;;;34.03;19.47;;;3.70;99.90;;;;;;10379032;28;20264;-76
2022/01/16 11:47:01;;;;;;;36.60;20.23;;;3.70;99.90;;;;;;10368475;28;20227;-77
2022/01/16 11:52:16;;;;;;;34.00;20.07;;;3.70;99.90;;;;;;10367591;28;20221;-76
2022/01/16 11:57:28;;;;;;;37.13;22.47;;;3.60;99.90;;;;;;10363484;28;20235;-74
2022/01/16 12:02:37;;;;;;;39.10;22.70;;;3.60;99.90;;;;;;10355639;28;20234;-76
2022/01/16 12:07:37;;;;;;;33.73;20.70;;;3.70;99.90;;;;;;10359755;28;20724;-77
2022/01/16 12:12:40;;;;;;;35.67;21.77;;;3.70;99.90;;;;;;10346781;28;20263;-76
2022/01/16 12:17:43;;;;;;;38.60;21.63;;;3.70;99.90;;;;;;10359307;28;20244;-75
2022/01/16 12:22:56;;;;;;;37.10;22.30;;;3.80;99.90;;;;;;10355874;28;20703;-76
2022/01/16 12:28:08;;;;;;;37.50;22.27;;;3.90;99.90;;;;;;10358250;28;20379;-75
2022/01/16 12:33:10;;;;;;;34.47;21.00;;;4.00;99.90;;;;;;10355976;28;20595;-77
2022/01/16 12:38:16;;;;;;;34.50;20.70;;;4.10;99.90;;;;;;10339057;28;20233;-76
2022/01/16 12:43:30;;;;;;;33.73;19.33;;;4.20;99.90;;;;;;10372360;28;20723;-76
2022/01/16 12:48:31;;;;;;;29.37;17.87;;;4.30;99.90;;;;;;10343396;28;20724;-74
2022/01/16 12:53:41;;;;;;;30.60;19.50;;;4.40;99.90;;;;;;10353548;28;20186;-76
2022/01/16 12:58:42;;;;;;;30.33;18.17;;;4.40;99.90;;;;;;10333067;28;20199;-77
2022/01/16 13:03:44;;;;;;;28.63;18.40;;;4.50;99.90;;;;;;10360778;28;20193;-75
2022/01/16 13:09:03;;;;;;;31.67;18.83;;;4.60;99.90;;;;;;10353353;28;20220;-78
2022/01/16 13:14:06;;;;;;;26.37;16.87;;;4.90;99.90;;;;;;10383273;28;20213;-76
2022/01/16 13:19:18;;;;;;;25.30;16.60;;;5.00;99.90;;;;;;10358668;28;20289;-75
2022/01/16 13:24:27;;;;;;;27.73;17.93;;;5.00;99.90;;;;;;10385673;28;20197;-75
2022/01/16 13:29:28;;;;;;;27.63;17.93;;;4.80;99.90;;;;;;10359892;28;20320;-75
2022/01/16 13:34:37;;;;;;;28.77;17.90;;;4.50;99.90;;;;;;10338602;28;20763;-75
2022/01/16 13:39:42;;;;;;;28.80;18.43;;;4.50;99.90;;;;;;10360330;28;20210;-76
2022/01/16 13:44:43;;;;;;;26.77;16.97;;;4.60;99.90;;;;;;10356102;28;20232;-75
2022/01/16 13:49:46;;;;;;;28.70;17.93;;;4.60;99.90;;;;;;10362756;28;20232;-77
2022/01/16 13:54:47;;;;;;;27.97;18.47;;;4.70;99.90;;;;;;10339754;28;20232;-76
2022/01/16 13:59:59;;;;;;;26.13;17.17;;;4.80;99.90;;;;;;10342775;28;20250;-76
2022/01/16 14:05:00;;;;;;;27.80;17.47;;;4.90;99.90;;;;;;10351157;28;20598;-75
2022/01/16 14:10:01;;;;;;;25.73;17.97;;;4.90;99.90;;;;;;10325896;28;20966;-75
2022/01/16 14:15:11;;;;;;;24.77;16.73;;;4.80;99.90;;;;;;10364951;28;20288;-75
2022/01/16 14:20:24;;;;;;;26.50;18.50;;;4.90;99.90;;;;;;10345870;28;20347;-75
2022/01/16 14:25:28;;;;;;;28.00;18.93;;;4.90;99.90;;;;;;10345004;28;20235;-76
2022/01/16 14:30:28;;;;;;;31.60;18.57;;;4.80;99.90;;;;;;10364052;28;20230;-76
2022/01/16 14:35:31;;;;;;;27.77;18.67;;;4.70;99.90;;;;;;10373151;28;20765;-76
2022/01/16 14:40:32;;;;;;;29.07;18.73;;;4.60;99.90;;;;;;10383538;28;20577;-75
2022/01/16 14:45:33;;;;;;;28.83;19.17;;;4.50;99.90;;;;;;10385159;28;20818;-75
2022/01/16 14:50:33;;;;;;;29.90;20.53;;;4.40;99.90;;;;;;10388521;28;20225;-77
2022/01/16 14:55:37;;;;;;;31.27;20.30;;;4.30;99.90;;;;;;10386210;28;20233;-75
2022/01/16 15:00:38;;;;;;;32.77;21.43;;;4.20;99.90;;;;;;10367313;28;20285;-77
2022/01/16 15:05:39;;;;;;;31.57;20.13;;;4.20;99.90;;;;;;10363754;28;20252;-76
2022/01/16 15:10:40;;;;;;;34.73;21.70;;;4.20;99.90;;;;;;10360555;28;20332;-75
2022/01/16 15:16:10;;;;;;;32.93;21.03;;;4.10;99.90;;;;;;10362428;28;20245;-77
2022/01/16 15:21:11;;;;;;;32.67;20.50;;;4.10;99.90;;;;;;10341256;28;20320;-74
2022/01/16 15:26:12;;;;;;;34.23;21.53;;;4.10;99.90;;;;;;10356540;28;20288;-76
2022/01/16 15:31:13;;;;;;;36.90;22.80;;;4.10;99.90;;;;;;10364850;28;20305;-75
2022/01/16 15:36:13;;;;;;;37.73;22.10;;;4.10;99.90;;;;;;10368167;28;20272;-75
2022/01/16 15:41:39;;;;;;;36.10;22.60;;;4.00;99.90;;;;;;10357983;28;20228;-77
2022/01/16 15:46:52;;;;;;;;;;;;;;;;;;;;;
2022/01/16 15:51:54;;;;;;;42.70;24.57;;;4.10;99.90;;;;;;10366411;28;20681;-77
2022/01/16 15:57:02;;;;;;;40.53;23.17;;;4.00;99.90;;;;;;10363710;28;20241;-75
2022/01/16 16:02:03;;;;;;;44.73;25.20;;;4.00;99.90;;;;;;10360109;28;20260;-73
2022/01/16 16:07:04;;;;;;;43.40;24.77;;;3.90;99.90;;;;;;10359305;28;20264;-73
2022/01/16 16:12:06;;;;;;;47.33;26.93;;;3.90;99.90;;;;;;10358713;28;20225;-73
2022/01/16 16:17:07;;;;;;;48.23;27.33;;;3.80;99.90;;;;;;10375244;28;20245;-73
2022/01/16 16:22:08;;;;;;;47.43;27.37;;;3.80;99.90;;;;;;10343301;28;20273;-74
2022/01/16 16:27:10;;;;;;;46.33;26.53;;;3.70;99.90;;;;;;10351629;28;20344;-74
2022/01/16 16:32:11;;;;;;;47.40;27.27;;;3.70;99.90;;;;;;10358373;28;20603;-73
2022/01/16 16:37:14;;;;;;;46.23;27.03;;;3.60;99.90;;;;;;10365852;28;20237;-74
2022/01/16 16:42:16;;;;;;;48.50;28.07;;;3.60;99.90;;;;;;10373439;28;20233;-75
2022/01/16 16:47:18;;;;;;;52.37;27.83;;;3.60;99.90;;;;;;10338519;28;20741;-74
2022/01/16 16:52:18;;;;;;;51.97;27.60;;;3.60;99.90;;;;;;10343429;28;20304;-74
2022/01/16 16:57:19;;;;;;;48.63;28.07;;;3.60;99.90;;;;;;10352278;28;20356;-75
2022/01/16 17:02:20;;;;;;;47.70;26.93;;;3.50;99.90;;;;;;10353944;28;20225;-75
2022/01/16 17:07:20;;;;;;;49.73;27.67;;;3.50;99.90;;;;;;10347846;28;20241;-74
2022/01/16 17:12:21;;;;;;;46.90;27.93;;;3.50;99.90;;;;;;10354050;28;20243;-74
2022/01/16 17:17:23;;;;;;;50.87;27.70;;;3.40;99.90;;;;;;10353165;28;20234;-74
2022/01/16 17:22:25;;;;;;;47.33;27.43;;;3.40;99.90;;;;;;10354035;28;20234;-75
2022/01/16 17:27:27;;;;;;;51.00;27.07;;;3.40;99.90;;;;;;10352936;28;20230;-74
2022/01/16 17:32:27;;;;;;;46.47;26.67;;;3.40;99.90;;;;;;10352437;28;20225;-77
2022/01/16 17:37:30;;;;;;;48.53;27.97;;;3.50;99.90;;;;;;10356961;28;20720;-75
2022/01/16 17:42:31;;;;;;;45.83;26.37;;;3.50;99.90;;;;;;10354541;28;20301;-75
2022/01/16 17:47:32;;;;;;;47.60;26.23;;;3.60;99.90;;;;;;10346221;28;20241;-75
2022/01/16 17:52:33;;;;;;;46.07;27.67;;;3.60;99.90;;;;;;10360870;28;20230;-74
2022/01/16 17:57:33;;;;;;;46.63;25.83;;;3.60;99.90;;;;;;10353490;28;20241;-74
2022/01/16 18:02:36;;;;;;;40.70;24.87;;;3.60;99.90;;;;;;10349510;28;20221;-75
2022/01/16 18:07:39;;;;;;;43.37;25.37;;;3.70;99.90;;;;;;10350754;28;20248;-75
2022/01/16 18:12:41;;;;;;;41.13;23.60;;;3.70;99.90;;;;;;10356809;28;20233;-76
2022/01/16 18:17:42;;;;;;;40.13;24.23;;;3.70;99.90;;;;;;10349710;28;20233;-74
2022/01/16 18:22:51;;;;;;;34.53;22.63;;;3.70;99.90;;;;;;10372291;28;20236;-75
2022/01/16 18:27:53;;;;;;;38.80;23.87;;;3.80;99.90;;;;;;10362045;28;20229;-75
2022/01/16 18:32:54;;;;;;;40.90;23.63;;;3.70;99.90;;;;;;10340154;28;20713;-75
2022/01/16 18:37:54;;;;;;;34.30;21.23;;;3.80;99.90;;;;;;10350434;28;20376;-77
2022/01/16 18:43:00;;;;;;;38.37;22.03;;;3.80;99.90;;;;;;10372619;28;20260;-77
2022/01/16 18:48:06;;;;;;;33.00;21.00;;;3.80;99.90;;;;;;10354818;28;20225;-77
2022/01/16 18:53:07;;;;;;;31.90;20.33;;;3.80;99.90;;;;;;10348012;28;20234;-76
2022/01/16 18:58:08;;;;;;;28.50;19.90;;;3.80;99.90;;;;;;10361156;28;20520;-77
2022/01/16 19:03:09;;;;;;;31.27;19.97;;;3.80;99.90;;;;;;10360780;28;20226;-76
2022/01/16 19:08:10;;;;;;;31.13;20.13;;;3.90;99.90;;;;;;10336688;28;20316;-76
2022/01/16 19:13:10;;;;;;;28.53;19.50;;;3.90;99.90;;;;;;10367702;28;20235;-77
2022/01/16 19:18:11;;;;;;;27.37;18.67;;;4.00;99.90;;;;;;10361372;28;20233;-75
2022/01/16 19:23:12;;;;;;;26.03;18.00;;;4.00;99.90;;;;;;10369994;28;20252;-76
2022/01/16 19:28:15;;;;;;;28.93;19.80;;;4.00;99.90;;;;;;10349503;28;20964;-76
2022/01/16 19:33:18;;;;;;;26.80;18.27;;;4.00;99.90;;;;;;10355416;28;20240;-75
2022/01/16 19:38:19;;;;;;;28.47;19.20;;;4.00;99.90;;;;;;10351406;28;20705;-77
2022/01/16 19:43:21;;;;;;;27.43;19.03;;;4.00;99.90;;;;;;10361198;28;20225;-75
2022/01/16 19:48:22;;;;;;;23.80;17.33;;;4.00;99.90;;;;;;10361853;28;20229;-76
2022/01/16 19:53:23;;;;;;;25.87;17.70;;;4.10;99.90;;;;;;10352691;28;20229;-77
2022/01/16 19:58:23;;;;;;;24.43;17.23;;;4.10;99.90;;;;;;10352234;28;20725;-76
2022/01/16 20:03:24;;;;;;;22.77;17.03;;;4.10;99.90;;;;;;10363102;28;20288;-76
2022/01/16 20:08:25;;;;;;;25.23;17.47;;;4.10;99.90;;;;;;10357232;28;20229;-76
2022/01/16 20:13:26;;;;;;;26.17;17.83;;;4.10;99.90;;;;;;10357157;28;20222;-76
2022/01/16 20:18:28;;;;;;;29.10;19.10;;;4.10;99.90;;;;;;10352085;28;20229;-75
2022/01/16 20:23:29;;;;;;;28.40;20.10;;;4.10;99.90;;;;;;10356387;28;20316;-76
2022/01/16 20:28:30;;;;;;;30.90;20.10;;;4.00;99.90;;;;;;10369604;28;20316;-75
2022/01/16 20:33:30;;;;;;;28.00;19.13;;;3.90;99.90;;;;;;10347202;28;20322;-76
2022/01/16 20:38:31;;;;;;;27.07;19.13;;;3.90;99.90;;;;;;10370158;28;20767;-75
2022/01/16 20:43:32;;;;;;;29.33;19.23;;;4.00;99.90;;;;;;10356922;28;20288;-75
2022/01/16 20:48:34;;;;;;;27.63;18.77;;;4.00;99.90;;;;;;10344214;28;20238;-75
2022/01/16 20:53:36;;;;;;;26.83;19.97;;;4.10;99.90;;;;;;10361983;28;20492;-75
2022/01/16 20:58:37;;;;;;;25.03;17.70;;;4.00;99.90;;;;;;10367924;28;20795;-76
2022/01/16 21:03:38;;;;;;;25.70;18.83;;;4.00;99.90;;;;;;10358154;28;20225;-77
2022/01/16 21:08:43;;;;;;;24.03;17.90;;;4.00;99.90;;;;;;10342304;28;20748;-76
2022/01/16 21:13:48;;;;;;;28.93;18.80;;;4.00;99.90;;;;;;10347793;28;21015;-76
2022/01/16 21:18:48;;;;;;;24.70;17.97;;;4.10;99.90;;;;;;10360852;28;20233;-75
2022/01/16 21:23:50;;;;;;;28.13;19.03;;;4.10;99.90;;;;;;10343932;28;20329;-76
2022/01/16 21:28:56;;;;;;;26.60;18.27;;;4.10;99.90;;;;;;10348883;28;20225;-78
2022/01/16 21:33:58;;;;;;;27.03;18.57;;;4.10;99.90;;;;;;10355104;28;20308;-76
2022/01/16 21:38:59;;;;;;;26.87;17.93;;;4.10;99.90;;;;;;10352360;28;20229;-76
2022/01/16 21:43:59;;;;;;;29.53;17.83;;;4.10;99.90;;;;;;10359119;28;20229;-76
2022/01/16 21:49:01;;;;;;;25.47;18.00;;;4.10;99.90;;;;;;10331213;28;20288;-76
2022/01/16 21:54:02;;;;;;;25.00;17.67;;;4.10;99.90;;;;;;10365745;28;20241;-75
2022/01/16 21:59:04;;;;;;;23.90;17.70;;;4.10;99.90;;;;;;10322992;28;20218;-77
2022/01/16 22:04:06;;;;;;;21.87;16.13;;;4.10;99.90;;;;;;10328777;28;20222;-77
2022/01/16 22:09:08;;;;;;;24.43;16.73;;;4.10;99.90;;;;;;10336250;28;20286;-77
2022/01/16 22:14:09;;;;;;;23.80;16.53;;;4.10;99.90;;;;;;10361370;28;20225;-73
2022/01/16 22:19:17;;;;;;;20.70;15.00;;;4.10;99.90;;;;;;10368190;28;20225;-77
2022/01/16 22:24:18;;;;;;;19.43;15.03;;;4.10;99.90;;;;;;10352244;28;20317;-77
2022/01/16 22:29:19;;;;;;;21.63;16.40;;;4.10;99.90;;;;;;10374347;28;20259;-76
2022/01/16 22:34:19;;;;;;;23.50;16.93;;;4.20;99.90;;;;;;10347406;28;20961;-75
2022/01/16 22:39:20;;;;;;;22.07;16.13;;;4.10;99.90;;;;;;10352395;28;20230;-75
2022/01/16 22:44:21;;;;;;;22.23;16.23;;;4.10;99.90;;;;;;10354077;28;20552;-75
2022/01/16 22:49:33;;;;;;;24.30;17.50;;;4.10;99.90;;;;;;10357077;28;20292;-78
2022/01/16 22:54:34;;;;;;;23.10;16.70;;;4.10;99.90;;;;;;10342566;28;20306;-75
2022/01/16 22:59:35;;;;;;;22.37;16.70;;;4.10;99.90;;;;;;10362975;28;20249;-76
2022/01/16 23:04:37;;;;;;;22.53;16.47;;;4.10;99.90;;;;;;10353827;28;20571;-75
2022/01/16 23:09:38;;;;;;;22.80;16.80;;;4.10;99.90;;;;;;10360168;28;20241;-75
2022/01/16 23:14:39;;;;;;;24.33;16.63;;;4.10;99.90;;;;;;10367029;28;20221;-76
2022/01/16 23:19:40;;;;;;;21.87;16.50;;;4.10;99.90;;;;;;10357071;28;20607;-76
2022/01/16 23:24:40;;;;;;;22.30;16.37;;;4.10;99.90;;;;;;10356896;28;20316;-77
2022/01/16 23:29:44;;;;;;;21.00;15.27;;;4.10;99.90;;;;;;10350333;28;20272;-76
2022/01/16 23:34:46;;;;;;;23.40;15.87;;;4.00;99.90;;;;;;10341738;28;20333;-74
2022/01/16 23:39:49;;;;;;;24.37;16.67;;;4.00;99.90;;;;;;10343696;28;20236;-76
2022/01/16 23:44:50;;;;;;;25.23;17.20;;;4.00;99.90;;;;;;10353902;28;20225;-74
2022/01/16 23:49:53;;;;;;;27.33;18.13;;;4.00;99.90;;;;;;10358012;28;20283;-76
2022/01/16 23:54:55;;;;;;;26.63;18.10;;;4.00;99.90;;;;;;10349340;28;20230;-76
2022/01/16 23:59:57;;;;;;;27.43;17.70;;;4.00;99.90;;;;;;10333411;28;20222;-75
